createdAt,value
2023-02-17T00:05:52.258Z,11
2023-02-17T00:11:52.218Z,12
2023-02-17T00:17:52.230Z,11
2023-02-17T00:23:52.377Z,11
2023-02-17T00:29:52.237Z,10
2023-02-17T00:35:52.230Z,10
2023-02-17T00:41:57.683Z,11
2023-02-17T00:47:52.241Z,10
2023-02-17T00:53:52.248Z,10
2023-02-17T00:59:52.281Z,9
2023-02-17T01:05:52.214Z,9
2023-02-17T01:11:52.250Z,9
2023-02-17T01:17:52.259Z,9
2023-02-17T01:23:52.245Z,9
2023-02-17T01:29:52.232Z,8
2023-02-17T01:35:52.278Z,8
2023-02-17T01:41:52.215Z,8
2023-02-17T01:47:52.246Z,8
2023-02-17T01:53:52.279Z,8
2023-02-17T01:59:52.223Z,7
2023-02-17T02:05:52.232Z,8
2023-02-17T02:11:52.340Z,8
2023-02-17T02:17:52.224Z,7
2023-02-17T02:23:52.230Z,7
2023-02-17T02:29:52.259Z,7
2023-02-17T02:35:52.224Z,7
2023-02-17T02:41:52.276Z,6
2023-02-17T02:47:52.249Z,6
2023-02-17T02:53:52.241Z,6
2023-02-17T02:59:52.247Z,6
2023-02-17T03:05:52.266Z,6
2023-02-17T03:11:52.220Z,6
2023-02-17T03:17:52.263Z,6
2023-02-17T03:23:52.249Z,6
2023-02-17T03:29:52.313Z,6
2023-02-17T03:35:52.248Z,6
2023-02-17T03:41:52.244Z,6
2023-02-17T03:47:52.238Z,6
2023-02-17T03:53:52.241Z,6
2023-02-17T03:59:52.282Z,6
2023-02-17T04:05:52.246Z,5
2023-02-17T04:11:52.247Z,5
2023-02-17T04:17:52.244Z,5
2023-02-17T04:23:52.231Z,5
2023-02-17T04:29:52.239Z,5
2023-02-17T04:35:52.277Z,6
2023-02-17T04:41:53.239Z,6
2023-02-17T04:47:52.234Z,5
2023-02-17T04:53:52.244Z,5
2023-02-17T04:59:52.276Z,5
2023-02-17T05:05:52.293Z,5
2023-02-17T05:12:02.536Z,5
2023-02-17T05:17:52.219Z,5
2023-02-17T05:23:52.230Z,5
2023-02-17T05:29:52.246Z,5
2023-02-17T05:35:52.234Z,5
2023-02-17T05:41:52.227Z,5
2023-02-17T05:47:52.240Z,5
2023-02-17T05:53:52.220Z,5
2023-02-17T05:59:52.247Z,6
2023-02-17T06:05:52.287Z,5
2023-02-17T06:11:52.202Z,5
2023-02-17T06:17:52.254Z,5
2023-02-17T06:23:52.264Z,5
2023-02-17T06:29:52.224Z,5
2023-02-17T06:35:52.239Z,5
2023-02-17T06:41:52.256Z,4
2023-02-17T06:47:52.232Z,4
2023-02-17T06:53:52.232Z,5
2023-02-17T06:59:52.270Z,5
2023-02-17T07:05:52.230Z,5
2023-02-17T07:11:52.240Z,5
2023-02-17T07:17:52.247Z,4
2023-02-17T07:23:52.232Z,5
2023-02-17T07:29:52.236Z,5
2023-02-17T07:35:52.241Z,9
2023-02-17T07:41:52.207Z,5
2023-02-17T07:47:52.243Z,5
2023-02-17T07:53:52.255Z,6
2023-02-17T07:59:52.224Z,5
2023-02-17T08:05:52.230Z,5
2023-02-17T08:11:52.316Z,5
2023-02-17T08:17:52.204Z,5
2023-02-17T08:23:52.207Z,5
2023-02-17T08:29:54.026Z,4
2023-02-17T08:35:52.234Z,4
2023-02-17T08:41:52.237Z,5
2023-02-17T08:47:52.320Z,4
2023-02-17T08:53:52.266Z,5
2023-02-17T08:59:52.261Z,5
2023-02-17T09:05:52.275Z,4
2023-02-17T09:11:52.230Z,4
2023-02-17T09:17:52.248Z,4
2023-02-17T09:23:52.287Z,4
2023-02-17T09:29:52.231Z,4
2023-02-17T09:35:52.302Z,3
2023-02-17T09:41:52.377Z,3
2023-02-17T09:47:52.245Z,3
2023-02-17T09:53:52.253Z,3
2023-02-17T09:59:52.261Z,2
2023-02-17T10:05:52.285Z,4
2023-02-17T10:11:52.229Z,2
2023-02-17T10:17:52.250Z,2
2023-02-17T10:23:52.241Z,2
2023-02-17T10:29:52.339Z,2
2023-02-17T10:35:52.277Z,2
2023-02-17T10:41:52.316Z,2
2023-02-17T10:47:52.300Z,1
2023-02-17T10:53:52.334Z,2
2023-02-17T10:59:52.296Z,3
2023-02-17T11:05:52.315Z,2
2023-02-17T11:11:52.337Z,2
2023-02-17T11:17:52.351Z,3
2023-02-17T11:23:52.332Z,2
2023-02-17T11:29:52.391Z,1
2023-02-17T11:35:52.726Z,1
2023-02-17T11:41:52.330Z,1
2023-02-17T11:47:52.365Z,1
2023-02-17T11:53:52.348Z,1
2023-02-17T11:59:52.341Z,1
2023-02-17T12:05:52.358Z,1
2023-02-17T12:11:52.364Z,1
2023-02-17T12:17:52.347Z,1
2023-02-17T12:23:52.411Z,1
2023-02-17T12:29:52.337Z,1
2023-02-17T12:35:52.326Z,1
2023-02-17T12:41:52.362Z,1
2023-02-17T12:47:52.326Z,1
2023-02-17T12:53:52.314Z,1
2023-02-17T12:59:52.377Z,1
2023-02-17T13:05:52.348Z,1
2023-02-17T13:11:52.346Z,1
2023-02-17T13:17:52.357Z,1
2023-02-17T13:23:52.395Z,1
2023-02-17T13:29:52.363Z,1
2023-02-17T13:35:52.374Z,1
2023-02-17T13:41:52.352Z,1
2023-02-17T13:47:52.354Z,1
2023-02-17T13:53:52.366Z,1
2023-02-17T13:59:52.368Z,1
2023-02-17T14:05:52.351Z,1
2023-02-17T14:11:52.360Z,1
2023-02-17T14:17:52.340Z,3
2023-02-17T14:23:52.337Z,2
2023-02-17T14:29:52.435Z,3
2023-02-17T14:36:11.043Z,3
2023-02-17T14:41:52.338Z,4
2023-02-17T14:47:52.358Z,4
2023-02-17T14:53:52.338Z,2
2023-02-17T14:59:52.376Z,2
2023-02-17T15:05:52.374Z,2
2023-02-17T15:11:52.404Z,2
2023-02-17T15:17:52.323Z,5
2023-02-17T15:23:52.364Z,4
2023-02-17T15:29:52.358Z,3
2023-02-17T15:35:52.352Z,2
2023-02-17T15:41:52.368Z,3
2023-02-17T15:47:52.346Z,3
2023-02-17T15:53:52.368Z,4
2023-02-17T15:59:52.379Z,7
2023-02-17T16:05:52.323Z,9
2023-02-17T16:11:52.340Z,6
2023-02-17T16:17:52.338Z,5
2023-02-17T16:23:52.332Z,4
2023-02-17T16:29:52.423Z,5
2023-02-17T16:35:52.381Z,7
2023-02-17T16:41:52.354Z,4
2023-02-17T16:47:52.347Z,4
2023-02-17T16:53:52.359Z,3
2023-02-17T16:59:52.336Z,3
2023-02-17T17:05:52.348Z,7
2023-02-17T17:11:52.391Z,4
2023-02-17T17:17:52.415Z,7
2023-02-17T17:23:52.354Z,5
2023-02-17T17:29:52.374Z,4
2023-02-17T17:35:52.334Z,4
2023-02-17T17:41:52.342Z,5
2023-02-17T17:47:52.401Z,5
2023-02-17T17:53:52.338Z,4
2023-02-17T17:59:52.377Z,5
2023-02-17T18:05:52.347Z,3
2023-02-17T18:11:52.364Z,4
2023-02-17T18:17:52.361Z,5
2023-02-17T18:23:52.353Z,5
2023-02-17T18:29:52.348Z,4
2023-02-17T18:35:52.318Z,4
2023-02-17T18:41:52.371Z,3
2023-02-17T18:47:52.349Z,3
2023-02-17T18:53:52.326Z,4
2023-02-17T18:59:52.368Z,3
2023-02-17T19:05:52.319Z,4
2023-02-17T19:11:52.342Z,7
2023-02-17T19:17:52.360Z,8
2023-02-17T19:23:52.394Z,5
2023-02-17T19:29:52.323Z,4
2023-02-17T19:35:52.347Z,4
2023-02-17T19:41:52.358Z,5
2023-02-17T19:48:10.849Z,6
2023-02-17T19:53:52.393Z,5
2023-02-17T19:59:52.356Z,5
2023-02-17T20:05:52.341Z,5
2023-02-17T20:11:52.372Z,5
2023-02-17T20:17:52.352Z,5
2023-02-17T20:23:52.352Z,7
2023-02-17T20:29:52.358Z,6
2023-02-17T20:35:52.339Z,6
2023-02-17T20:41:52.338Z,7
2023-02-17T20:47:52.387Z,6
2023-02-17T20:53:52.485Z,6
2023-02-17T20:59:52.351Z,6
2023-02-17T21:05:52.376Z,6
2023-02-17T21:11:52.353Z,5
2023-02-17T21:17:52.333Z,5
2023-02-17T21:23:52.371Z,6
2023-02-17T21:29:52.343Z,5
2023-02-17T21:35:52.347Z,6
2023-02-17T21:41:52.371Z,19
2023-02-17T21:47:52.360Z,14
2023-02-17T21:53:52.324Z,6
2023-02-17T21:59:52.373Z,6
2023-02-17T22:05:52.326Z,6
2023-02-17T22:11:52.384Z,5
2023-02-17T22:17:52.358Z,5
2023-02-17T22:23:52.349Z,5
2023-02-17T22:29:52.342Z,5
2023-02-17T22:35:52.357Z,5
2023-02-17T22:41:52.353Z,8
2023-02-17T22:47:52.332Z,6
2023-02-17T22:53:52.367Z,5
2023-02-17T22:59:52.342Z,6
2023-02-17T23:05:52.349Z,6
2023-02-17T23:11:52.401Z,6
2023-02-17T23:17:52.343Z,5
2023-02-17T23:23:52.330Z,5
2023-02-17T23:29:52.368Z,5
2023-02-17T23:35:52.351Z,5
2023-02-17T23:41:52.367Z,5
2023-02-17T23:47:52.368Z,5
2023-02-17T23:53:52.328Z,5
2023-02-17T23:59:52.349Z,6
